createdAt,value
2023-05-19T00:00:00.610Z,102167.25
2023-05-19T00:02:30.154Z,102192.56
2023-05-19T00:04:58.153Z,102159.41
2023-05-19T00:07:30.361Z,102176.69
2023-05-19T00:09:58.448Z,102187.59
2023-05-19T00:12:26.229Z,102204.34
2023-05-19T00:14:54.281Z,102232.06
2023-05-19T00:17:22.223Z,102207.22
2023-05-19T00:19:50.956Z,102203.44
2023-05-19T00:22:18.266Z,102199.63
2023-05-19T00:24:45.620Z,102202.31
2023-05-19T00:27:13.018Z,102177.09
2023-05-19T00:29:40.318Z,102194.59
2023-05-19T00:32:07.732Z,102189.00
2023-05-19T00:34:35.249Z,102180.13
2023-05-19T00:37:04.107Z,102163.75
2023-05-19T00:39:31.476Z,102171.22
2023-05-19T00:41:58.954Z,102159.78
2023-05-19T00:44:26.386Z,102158.00
2023-05-19T00:46:53.816Z,102152.25
2023-05-19T00:49:21.223Z,102111.94
2023-05-19T00:51:49.085Z,102109.31
2023-05-19T00:54:18.587Z,102112.00
2023-05-19T00:56:45.960Z,102106.38
2023-05-19T00:59:13.329Z,102134.75
2023-05-19T01:01:41.567Z,102140.03
2023-05-19T01:04:09.070Z,102127.03
2023-05-19T01:06:36.584Z,102138.69
2023-05-19T01:09:04.358Z,102142.84
2023-05-19T01:11:33.000Z,102101.50
2023-05-19T01:14:00.640Z,102092.72
2023-05-19T01:16:34.898Z,102098.72
2023-05-19T01:19:14.242Z,102074.72
2023-05-19T01:22:18.672Z,102060.94
2023-05-19T01:25:31.567Z,102032.97
2023-05-19T01:28:25.300Z,102038.47
2023-05-19T01:30:55.484Z,102030.53
2023-05-19T01:33:25.660Z,102033.25
2023-05-19T01:35:55.343Z,102040.03
2023-05-19T01:38:25.787Z,102027.94
2023-05-19T01:40:55.906Z,102052.66
2023-05-19T01:43:26.690Z,102019.94
2023-05-19T01:45:56.725Z,101993.69
2023-05-19T01:48:26.064Z,102023.19
2023-05-19T01:50:53.466Z,102047.09
2023-05-19T01:53:20.864Z,102081.63
2023-05-19T01:55:50.592Z,102080.81
2023-05-19T01:58:31.067Z,102097.22
2023-05-19T02:01:08.515Z,102098.16
2023-05-19T02:03:53.966Z,102099.28
2023-05-19T02:06:36.958Z,102081.84
2023-05-19T02:09:09.544Z,102083.94
2023-05-19T02:11:39.803Z,102111.91
2023-05-19T02:14:13.605Z,102133.06
2023-05-19T02:16:45.836Z,102155.66
2023-05-19T02:19:21.502Z,102171.91
2023-05-19T02:21:49.006Z,102180.03
2023-05-19T02:24:16.320Z,102172.25
2023-05-19T02:26:43.957Z,102173.91
2023-05-19T02:29:11.311Z,102186.44
2023-05-19T02:31:38.774Z,102182.59
2023-05-19T02:34:08.235Z,102189.63
2023-05-19T02:36:39.602Z,102206.53
2023-05-19T02:39:07.156Z,102212.94
2023-05-19T02:41:34.622Z,102208.41
2023-05-19T02:44:01.948Z,102207.25
2023-05-19T02:46:29.466Z,102210.00
2023-05-19T02:48:56.947Z,102244.41
2023-05-19T02:51:25.606Z,102231.81
2023-05-19T02:53:53.029Z,102230.06
2023-05-19T02:56:20.331Z,102243.19
2023-05-19T02:58:47.776Z,102241.69
2023-05-19T03:01:15.237Z,102233.06
2023-05-19T03:03:42.805Z,102243.56
2023-05-19T03:06:10.176Z,102247.06
2023-05-19T03:08:41.517Z,102251.97
2023-05-19T03:11:09.830Z,102257.19
2023-05-19T03:13:37.115Z,102251.19
2023-05-19T03:16:04.984Z,102260.75
2023-05-19T03:18:32.307Z,102264.84
2023-05-19T03:21:00.055Z,102241.34
2023-05-19T03:23:27.380Z,102239.13
2023-05-19T03:25:56.103Z,102266.63
2023-05-19T03:28:23.745Z,102254.69
2023-05-19T03:30:51.136Z,102275.94
2023-05-19T03:33:22.014Z,102275.09
2023-05-19T03:35:49.520Z,102274.72
2023-05-19T03:38:17.426Z,102260.25
2023-05-19T03:40:52.147Z,102297.53
2023-05-19T03:43:20.908Z,102304.41
2023-05-19T03:45:54.108Z,102325.69
2023-05-19T03:48:39.844Z,102353.28
2023-05-19T03:51:27.462Z,102366.47
2023-05-19T03:53:57.964Z,102370.44
2023-05-19T03:56:25.402Z,102359.09
2023-05-19T03:58:54.083Z,102369.91
2023-05-19T04:01:21.628Z,102379.81
2023-05-19T04:03:49.042Z,102382.53
2023-05-19T04:06:16.371Z,102358.00
2023-05-19T04:08:43.748Z,102359.84
2023-05-19T04:11:11.529Z,102376.75
2023-05-19T04:13:39.060Z,102370.84
2023-05-19T04:16:08.154Z,102365.50
2023-05-19T04:18:35.526Z,102378.91
2023-05-19T04:21:05.145Z,102390.69
2023-05-19T04:23:32.711Z,102408.31
2023-05-19T04:26:00.395Z,102423.16
2023-05-19T04:28:27.724Z,102414.03
2023-05-19T04:30:56.182Z,102437.38
2023-05-19T04:33:25.123Z,102448.31
2023-05-19T04:35:52.545Z,102482.06
2023-05-19T04:38:19.993Z,102511.44
2023-05-19T04:40:48.889Z,102550.97
2023-05-19T04:43:16.583Z,102583.56
2023-05-19T04:45:43.972Z,102594.88
2023-05-19T04:48:12.515Z,102591.88
2023-05-19T04:50:41.210Z,102608.41
2023-05-19T04:53:08.875Z,102620.31
2023-05-19T04:55:36.694Z,102626.97
2023-05-19T04:58:04.113Z,102644.56
2023-05-19T05:00:32.074Z,102654.09
2023-05-19T05:03:03.399Z,102666.44
2023-05-19T05:05:30.879Z,102689.38
2023-05-19T05:07:59.585Z,102705.97
2023-05-19T05:10:29.981Z,102700.84
2023-05-19T05:12:57.966Z,102705.06
2023-05-19T05:15:25.861Z,102733.31
2023-05-19T05:17:54.156Z,102739.88
2023-05-19T05:20:23.060Z,102737.22
2023-05-19T05:22:51.755Z,102744.63
2023-05-19T05:25:21.888Z,102753.34
2023-05-19T05:27:50.095Z,102752.28
2023-05-19T05:30:17.398Z,102744.16
2023-05-19T05:32:46.180Z,102747.66
2023-05-19T05:35:27.623Z,102754.00
2023-05-19T05:37:55.308Z,102763.16
2023-05-19T05:40:23.989Z,102766.44
2023-05-19T05:42:52.321Z,102777.44
2023-05-19T05:45:21.631Z,102781.47
2023-05-19T05:47:50.538Z,102768.16
2023-05-19T05:50:18.729Z,102767.78
2023-05-19T05:52:47.249Z,102762.56
2023-05-19T05:55:17.204Z,102780.72
2023-05-19T05:57:48.931Z,102789.97
2023-05-19T06:00:17.273Z,102797.41
2023-05-19T06:02:52.233Z,102799.97
2023-05-19T06:05:20.911Z,102812.78
2023-05-19T06:07:49.294Z,102816.00
2023-05-19T06:10:24.645Z,102814.47
2023-05-19T06:12:53.716Z,102818.91
2023-05-19T06:15:23.361Z,102819.16
2023-05-19T06:18:04.209Z,102813.44
2023-05-19T06:20:31.810Z,102811.19
2023-05-19T06:23:00.735Z,102820.22
2023-05-19T06:25:29.338Z,102813.34
2023-05-19T06:27:59.203Z,102822.09
2023-05-19T06:30:26.626Z,102834.44
2023-05-19T06:33:03.139Z,102839.94
2023-05-19T06:35:30.829Z,102840.84
2023-05-19T06:37:58.507Z,102839.16
2023-05-19T06:40:26.073Z,102840.50
2023-05-19T06:42:54.524Z,102849.66
2023-05-19T06:45:43.842Z,102848.78
2023-05-19T06:48:12.018Z,102845.19
2023-05-19T06:50:39.548Z,102855.91
2023-05-19T06:53:07.464Z,102848.97
2023-05-19T06:55:39.203Z,102855.84
2023-05-19T06:58:15.831Z,102860.56
2023-05-19T07:00:44.651Z,102870.50
2023-05-19T07:03:15.300Z,102870.00
2023-05-19T07:05:42.991Z,102883.25
2023-05-19T07:08:11.710Z,102872.28
2023-05-19T07:10:40.061Z,102882.50
2023-05-19T07:13:12.073Z,102882.13
2023-05-19T07:15:39.436Z,102882.56
2023-05-19T07:18:08.219Z,102882.47
2023-05-19T07:20:36.373Z,102885.28
2023-05-19T07:23:04.624Z,102884.59
2023-05-19T07:25:31.985Z,102890.31
2023-05-19T07:28:00.458Z,102893.22
2023-05-19T07:30:28.618Z,102901.88
2023-05-19T07:32:56.331Z,102896.53
2023-05-19T07:35:26.682Z,102887.25
2023-05-19T07:37:53.973Z,102899.59
2023-05-19T07:40:21.281Z,102889.53
2023-05-19T07:42:49.894Z,102892.34
2023-05-19T07:45:17.312Z,102893.91
2023-05-19T07:47:44.640Z,102895.69
2023-05-19T07:50:12.092Z,102890.94
2023-05-19T07:52:40.719Z,102894.25
2023-05-19T07:55:08.226Z,102891.31
2023-05-19T07:57:35.644Z,102890.53
2023-05-19T08:00:03.296Z,102888.31
2023-05-19T08:02:39.136Z,102884.09
2023-05-19T08:05:07.851Z,102893.47
2023-05-19T08:07:35.245Z,102891.50
2023-05-19T08:10:04.609Z,102882.13
2023-05-19T08:12:31.902Z,102891.53
2023-05-19T08:15:01.423Z,102891.47
2023-05-19T08:17:29.344Z,102882.91
2023-05-19T08:19:56.732Z,102874.81
2023-05-19T08:22:24.059Z,102877.50
2023-05-19T08:24:51.887Z,102875.38
2023-05-19T08:27:20.687Z,102878.41
2023-05-19T08:29:48.106Z,102881.38
2023-05-19T08:32:15.434Z,102878.00
2023-05-19T08:34:43.528Z,102878.19
2023-05-19T08:37:10.767Z,102873.16
2023-05-19T08:39:38.301Z,102886.06
2023-05-19T08:42:06.335Z,102875.88
2023-05-19T08:44:38.173Z,102864.09
2023-05-19T08:47:06.165Z,102860.53
2023-05-19T08:49:43.925Z,102871.25
2023-05-19T08:52:22.442Z,102864.28
2023-05-19T08:54:54.151Z,102852.16
2023-05-19T08:57:22.962Z,102846.22
2023-05-19T08:59:53.262Z,102849.09
2023-05-19T09:02:22.171Z,102842.56
2023-05-19T09:04:49.713Z,102838.81
2023-05-19T09:07:18.350Z,102841.09
2023-05-19T09:09:45.813Z,102834.06
2023-05-19T09:12:14.183Z,102822.63
2023-05-19T09:14:41.898Z,102810.50
2023-05-19T09:17:10.681Z,102811.66
2023-05-19T09:19:43.054Z,102802.06
2023-05-19T09:22:12.050Z,102796.72
2023-05-19T09:24:39.324Z,102783.72
2023-05-19T09:27:06.624Z,102771.97
2023-05-19T09:29:34.055Z,102742.91
2023-05-19T09:32:08.714Z,102741.06
2023-05-19T09:34:41.580Z,102732.06
2023-05-19T09:37:12.701Z,102713.13
2023-05-19T09:39:40.388Z,102699.00
2023-05-19T09:42:07.757Z,102731.09
2023-05-19T09:44:35.469Z,102744.75
2023-05-19T09:47:03.346Z,102718.03
2023-05-19T09:49:30.903Z,102699.16
2023-05-19T09:52:02.340Z,102698.28
2023-05-19T09:54:33.109Z,102685.66
2023-05-19T09:57:02.216Z,102687.53
2023-05-19T09:59:33.019Z,102693.00
2023-05-19T10:02:02.529Z,102697.59
2023-05-19T10:04:31.393Z,102722.66
2023-05-19T10:07:01.478Z,102711.59
2023-05-19T10:09:29.668Z,102717.75
2023-05-19T10:11:58.476Z,102690.28
2023-05-19T10:14:27.668Z,102684.91
2023-05-19T10:16:57.050Z,102685.38
2023-05-19T10:19:25.831Z,102683.34
2023-05-19T10:21:54.344Z,102678.84
2023-05-19T10:24:23.125Z,102659.63
2023-05-19T10:26:55.945Z,102654.59
2023-05-19T10:29:27.379Z,102672.03
2023-05-19T10:32:02.461Z,102688.63
2023-05-19T10:35:00.553Z,102665.22
2023-05-19T10:37:36.704Z,102651.91
2023-05-19T10:40:12.281Z,102649.56
2023-05-19T10:42:51.717Z,102609.34
2023-05-19T10:45:22.313Z,102634.97
2023-05-19T10:47:51.122Z,102626.63
2023-05-19T10:50:22.357Z,102634.06
2023-05-19T10:52:53.508Z,102642.75
2023-05-19T10:55:46.200Z,102656.38
2023-05-19T10:58:13.599Z,102652.72
2023-05-19T11:00:40.965Z,102647.94
2023-05-19T11:03:15.614Z,102648.97
2023-05-19T11:05:43.115Z,102654.56
2023-05-19T11:08:12.211Z,102637.16
2023-05-19T11:10:43.905Z,102614.38
2023-05-19T11:13:20.491Z,102622.72
2023-05-19T11:15:47.891Z,102596.44
2023-05-19T11:18:15.942Z,102583.63
2023-05-19T11:20:43.690Z,102600.56
2023-05-19T11:23:15.719Z,102625.22
2023-05-19T11:25:46.306Z,102645.91
2023-05-19T11:28:16.855Z,102659.63
2023-05-19T11:30:45.802Z,102661.50
2023-05-19T11:33:13.918Z,102666.03
2023-05-19T11:35:43.512Z,102659.34
2023-05-19T11:38:11.438Z,102659.38
2023-05-19T11:40:41.911Z,102660.06
2023-05-19T11:43:10.801Z,102658.59
2023-05-19T11:45:39.280Z,102631.19
2023-05-19T11:48:07.096Z,102608.13
2023-05-19T11:50:35.894Z,102618.03
2023-05-19T11:53:04.404Z,102597.19
2023-05-19T11:55:32.379Z,102576.53
2023-05-19T11:58:04.703Z,102613.75
2023-05-19T12:00:38.321Z,102619.19
2023-05-19T12:03:05.964Z,102599.13
2023-05-19T12:05:42.053Z,102586.00
2023-05-19T12:08:13.268Z,102570.31
2023-05-19T12:10:41.185Z,102578.88
2023-05-19T12:13:11.592Z,102563.75
2023-05-19T12:15:40.297Z,102586.97
2023-05-19T12:18:09.988Z,102607.78
2023-05-19T12:20:37.664Z,102619.81
2023-05-19T12:23:05.653Z,102611.25
2023-05-19T12:25:35.899Z,102604.69
2023-05-19T12:28:03.823Z,102583.81
2023-05-19T12:30:32.601Z,102560.28
2023-05-19T12:33:03.510Z,102555.78
2023-05-19T12:35:32.248Z,102532.31
2023-05-19T12:38:03.427Z,102533.19
2023-05-19T12:40:31.476Z,102541.38
2023-05-19T12:42:59.343Z,102555.97
2023-05-19T12:45:27.026Z,102573.44
2023-05-19T12:47:54.767Z,102569.50
2023-05-19T12:50:32.883Z,102542.00
2023-05-19T12:53:00.562Z,102540.13
2023-05-19T12:55:28.013Z,102534.31
2023-05-19T12:57:55.417Z,102555.94
2023-05-19T13:00:25.200Z,102566.94
2023-05-19T13:03:00.468Z,102590.53
2023-05-19T13:05:31.417Z,102591.16
2023-05-19T13:08:00.624Z,102598.13
2023-05-19T13:10:28.749Z,102585.13
2023-05-19T13:12:59.477Z,102570.69
2023-05-19T13:15:30.219Z,102566.44
2023-05-19T13:17:57.722Z,102557.72
2023-05-19T13:20:27.675Z,102558.97
2023-05-19T13:22:57.218Z,102567.34
2023-05-19T13:25:24.815Z,102568.56
2023-05-19T13:27:52.694Z,102564.81
2023-05-19T13:30:20.558Z,102553.25
2023-05-19T13:32:48.348Z,102526.16
2023-05-19T13:35:15.864Z,102504.53
2023-05-19T13:37:43.355Z,102490.25
2023-05-19T13:40:13.771Z,102467.31
2023-05-19T13:42:41.471Z,102473.59
2023-05-19T13:45:09.708Z,102472.75
2023-05-19T13:47:37.475Z,102490.66
2023-05-19T13:50:05.788Z,102525.22
2023-05-19T13:52:33.384Z,102517.38
2023-05-19T13:55:00.599Z,102532.69
2023-05-19T13:57:29.280Z,102525.94
2023-05-19T14:00:01.630Z,102511.66
2023-05-19T14:02:39.335Z,102509.06
2023-05-19T14:05:07.720Z,102517.59
2023-05-19T14:07:35.494Z,102520.25
2023-05-19T14:10:04.154Z,102505.56
2023-05-19T14:12:41.470Z,102514.78
2023-05-19T14:15:14.975Z,102509.84
2023-05-19T14:17:42.277Z,102478.41
2023-05-19T14:20:10.607Z,102506.09
2023-05-19T14:22:37.897Z,102526.09
2023-05-19T14:25:06.268Z,102528.56
2023-05-19T14:27:34.955Z,102532.44
2023-05-19T14:30:02.586Z,102530.22
2023-05-19T14:32:30.620Z,102515.00
2023-05-19T14:34:58.307Z,102523.16
2023-05-19T14:37:25.603Z,102526.16
2023-05-19T14:39:52.973Z,102535.91
2023-05-19T14:42:20.324Z,102544.75
2023-05-19T14:44:49.083Z,102550.09
2023-05-19T14:47:16.462Z,102551.97
2023-05-19T14:49:43.942Z,102553.81
2023-05-19T14:52:11.316Z,102547.50
2023-05-19T14:54:38.861Z,102534.91
2023-05-19T14:57:06.427Z,102552.53
2023-05-19T14:59:50.952Z,102541.69
2023-05-19T15:02:19.959Z,102531.84
2023-05-19T15:04:47.325Z,102515.97
2023-05-19T15:07:14.637Z,102508.28
2023-05-19T15:09:42.120Z,102505.94
2023-05-19T15:12:09.536Z,102521.94
2023-05-19T15:14:36.957Z,102532.88
2023-05-19T15:17:04.708Z,102532.94
2023-05-19T15:19:33.585Z,102507.91
2023-05-19T15:22:01.072Z,102466.47
2023-05-19T15:24:28.415Z,102495.75
2023-05-19T15:26:58.380Z,102486.78
2023-05-19T15:29:25.706Z,102492.03
2023-05-19T15:31:53.084Z,102493.16
2023-05-19T15:34:21.057Z,102498.78
2023-05-19T15:36:49.757Z,102511.66
2023-05-19T15:39:17.112Z,102512.91
2023-05-19T15:41:44.547Z,102508.91
2023-05-19T15:44:11.891Z,102499.69
2023-05-19T15:46:39.822Z,102499.84
2023-05-19T15:49:07.176Z,102496.66
2023-05-19T15:51:34.935Z,102498.56
2023-05-19T15:54:03.819Z,102502.91
2023-05-19T15:56:31.160Z,102513.13
2023-05-19T15:58:58.482Z,102522.25
2023-05-19T16:01:25.928Z,102516.13
2023-05-19T16:03:53.393Z,102527.31
2023-05-19T16:06:21.167Z,102525.09
2023-05-19T16:08:48.441Z,102523.50
2023-05-19T16:11:17.185Z,102515.81
2023-05-19T16:13:46.716Z,102481.16
2023-05-19T16:16:14.191Z,102444.34
2023-05-19T16:18:41.504Z,102449.72
2023-05-19T16:21:08.889Z,102450.53
2023-05-19T16:23:36.267Z,102472.31
2023-05-19T16:26:03.614Z,102477.00
2023-05-19T16:28:32.252Z,102464.47
2023-05-19T16:31:00.098Z,102482.66
2023-05-19T16:33:27.812Z,102473.59
2023-05-19T16:35:55.738Z,102475.19
2023-05-19T16:38:23.050Z,102489.59
2023-05-19T16:40:50.405Z,102490.16
2023-05-19T16:43:17.693Z,102500.81
2023-05-19T16:45:46.427Z,102515.22
2023-05-19T16:48:13.866Z,102510.66
2023-05-19T16:50:41.353Z,102505.78
2023-05-19T16:53:08.742Z,102504.69
2023-05-19T16:55:40.431Z,102505.25
2023-05-19T16:58:09.152Z,102511.16
2023-05-19T17:00:36.469Z,102517.63
2023-05-19T17:03:05.819Z,102514.91
2023-05-19T17:05:33.134Z,102533.63
2023-05-19T17:08:00.738Z,102528.59
2023-05-19T17:10:28.018Z,102543.06
2023-05-19T17:12:56.378Z,102533.66
2023-05-19T17:15:23.819Z,102540.59
2023-05-19T17:18:00.319Z,102524.72
2023-05-19T17:20:29.298Z,102512.16
2023-05-19T17:22:59.148Z,102503.66
2023-05-19T17:25:26.511Z,102515.41
2023-05-19T17:27:53.827Z,102508.31
2023-05-19T17:30:21.245Z,102504.91
2023-05-19T17:32:48.660Z,102487.50
2023-05-19T17:35:16.231Z,102499.78
2023-05-19T17:37:45.022Z,102486.00
2023-05-19T17:40:13.616Z,102492.03
2023-05-19T17:42:40.968Z,102490.69
2023-05-19T17:45:09.696Z,102501.69
2023-05-19T17:47:37.175Z,102503.13
2023-05-19T17:50:05.508Z,102506.59
2023-05-19T17:52:33.592Z,102501.91
2023-05-19T17:55:02.973Z,102510.16
2023-05-19T17:57:31.307Z,102518.88
2023-05-19T17:59:59.385Z,102528.94
2023-05-19T18:02:27.288Z,102534.59
2023-05-19T18:04:55.315Z,102543.66
2023-05-19T18:07:24.961Z,102552.31
2023-05-19T18:09:55.167Z,102557.59
2023-05-19T18:12:24.684Z,102559.38
2023-05-19T18:14:52.380Z,102546.19
2023-05-19T18:17:19.937Z,102549.75
2023-05-19T18:19:47.540Z,102554.34
2023-05-19T18:22:15.330Z,102558.88
2023-05-19T18:24:42.676Z,102564.78
2023-05-19T18:27:10.016Z,102563.03
2023-05-19T18:29:39.469Z,102567.06
2023-05-19T18:32:07.989Z,102577.41
2023-05-19T18:34:35.503Z,102580.56
2023-05-19T18:37:02.770Z,102590.47
2023-05-19T18:39:30.090Z,102587.88
2023-05-19T18:41:57.400Z,102601.47
2023-05-19T18:44:24.886Z,102599.59
2023-05-19T18:46:53.513Z,102602.56
2023-05-19T18:49:20.877Z,102605.41
2023-05-19T18:51:48.500Z,102606.34
2023-05-19T18:54:16.174Z,102600.56
2023-05-19T18:56:43.604Z,102612.69
2023-05-19T18:59:10.933Z,102616.66
2023-05-19T19:01:38.469Z,102608.75
2023-05-19T19:04:07.455Z,102615.22
2023-05-19T19:06:34.769Z,102617.72
2023-05-19T19:09:02.084Z,102625.09
2023-05-19T19:11:29.454Z,102622.25
2023-05-19T19:13:56.829Z,102630.00
2023-05-19T19:16:24.092Z,102626.31
2023-05-19T19:18:51.659Z,102630.44
2023-05-19T19:21:20.459Z,102641.72
2023-05-19T19:23:48.164Z,102637.41
2023-05-19T19:26:15.586Z,102643.66
2023-05-19T19:28:43.495Z,102650.34
2023-05-19T19:31:10.859Z,102655.38
2023-05-19T19:33:38.788Z,102651.91
2023-05-19T19:36:15.042Z,102657.66
2023-05-19T19:38:43.838Z,102669.47
2023-05-19T19:41:11.483Z,102670.59
2023-05-19T19:43:38.821Z,102664.34
2023-05-19T19:46:06.610Z,102673.91
2023-05-19T19:48:34.266Z,102676.09
2023-05-19T19:51:03.054Z,102681.09
2023-05-19T19:53:31.590Z,102685.22
2023-05-19T19:56:02.568Z,102674.19
2023-05-19T19:58:30.071Z,102687.06
2023-05-19T20:01:03.571Z,102693.63
2023-05-19T20:03:31.287Z,102703.84
2023-05-19T20:05:58.960Z,102703.00
2023-05-19T20:08:30.733Z,102712.09
2023-05-19T20:10:58.411Z,102715.88
2023-05-19T20:13:29.976Z,102720.66
2023-05-19T20:15:58.987Z,102710.41
2023-05-19T20:18:26.433Z,102712.56
2023-05-19T20:20:54.377Z,102703.94
2023-05-19T20:23:22.103Z,102716.47
2023-05-19T20:26:06.733Z,102710.81
2023-05-19T20:28:39.079Z,102711.59
2023-05-19T20:31:06.630Z,102716.09
2023-05-19T20:33:34.789Z,102715.13
2023-05-19T20:36:07.023Z,102716.53
2023-05-19T20:38:37.629Z,102709.03
2023-05-19T20:41:05.318Z,102716.50
2023-05-19T20:43:34.145Z,102715.53
2023-05-19T20:46:06.016Z,102718.44
2023-05-19T20:48:35.978Z,102714.22
2023-05-19T20:51:06.470Z,102721.25
2023-05-19T20:53:33.918Z,102720.50
2023-05-19T20:56:01.303Z,102712.03
2023-05-19T20:58:28.958Z,102719.09
2023-05-19T21:00:56.283Z,102723.28
2023-05-19T21:03:25.491Z,102727.78
2023-05-19T21:05:53.342Z,102731.22
2023-05-19T21:08:20.918Z,102729.88
2023-05-19T21:10:48.649Z,102728.19
2023-05-19T21:13:16.445Z,102726.41
2023-05-19T21:15:43.840Z,102721.16
2023-05-19T21:18:11.947Z,102728.31
2023-05-19T21:20:40.979Z,102713.50
2023-05-19T21:23:09.960Z,102716.59
2023-05-19T21:25:37.839Z,102718.88
2023-05-19T21:28:06.153Z,102731.47
2023-05-19T21:30:33.761Z,102727.16
2023-05-19T21:33:01.775Z,102722.72
2023-05-19T21:35:29.242Z,102725.09
2023-05-19T21:38:00.666Z,102728.09
2023-05-19T21:40:34.145Z,102732.38
2023-05-19T21:43:01.575Z,102734.81
2023-05-19T21:45:29.284Z,102736.38
2023-05-19T21:47:59.702Z,102728.09
2023-05-19T21:50:27.114Z,102736.13
2023-05-19T21:52:54.431Z,102748.00
2023-05-19T21:55:23.482Z,102748.78
2023-05-19T21:57:50.809Z,102747.09
2023-05-19T22:00:18.451Z,102746.03
2023-05-19T22:02:45.852Z,102748.78
2023-05-19T22:05:13.322Z,102753.66
2023-05-19T22:07:41.674Z,102753.53
2023-05-19T22:10:10.612Z,102746.28
2023-05-19T22:12:39.469Z,102750.72
2023-05-19T22:15:08.264Z,102745.47
2023-05-19T22:17:35.711Z,102736.69
2023-05-19T22:20:03.321Z,102739.06
2023-05-19T22:22:30.649Z,102744.94
2023-05-19T22:24:58.458Z,102740.63
2023-05-19T22:27:25.739Z,102739.53
2023-05-19T22:29:54.481Z,102747.84
2023-05-19T22:32:21.887Z,102751.13
2023-05-19T22:34:49.276Z,102755.91
2023-05-19T22:37:16.691Z,102755.09
2023-05-19T22:39:44.513Z,102742.88
2023-05-19T22:42:11.870Z,102747.53
2023-05-19T22:44:39.562Z,102743.59
2023-05-19T22:47:08.843Z,102739.41
2023-05-19T22:49:36.439Z,102744.94
2023-05-19T22:52:04.438Z,102744.84
2023-05-19T22:54:33.105Z,102749.00
2023-05-19T22:57:02.827Z,102749.34
2023-05-19T22:59:30.215Z,102750.91
2023-05-19T23:01:57.632Z,102741.13
2023-05-19T23:04:26.431Z,102737.94
2023-05-19T23:06:53.832Z,102748.91
2023-05-19T23:09:21.253Z,102743.28
2023-05-19T23:11:48.613Z,102741.44
2023-05-19T23:14:16.324Z,102747.13
2023-05-19T23:16:44.157Z,102736.47
2023-05-19T23:19:11.840Z,102739.09
2023-05-19T23:21:41.058Z,102741.69
2023-05-19T23:24:08.496Z,102756.38
2023-05-19T23:26:36.277Z,102749.94
2023-05-19T23:29:03.701Z,102737.38
2023-05-19T23:31:31.642Z,102744.28
2023-05-19T23:34:03.385Z,102743.50
2023-05-19T23:36:30.978Z,102738.28
2023-05-19T23:39:00.120Z,102743.81
2023-05-19T23:41:27.440Z,102740.22
2023-05-19T23:43:55.095Z,102744.25
2023-05-19T23:46:22.572Z,102737.38
2023-05-19T23:48:50.326Z,102740.66
2023-05-19T23:51:17.865Z,102742.84
2023-05-19T23:53:45.349Z,102741.22
2023-05-19T23:56:14.038Z,102745.28
2023-05-19T23:58:41.380Z,102745.69
